Terminal Aerodrome Forecast
Issued by NWS

Home | Current Version | Previous Version | Text Only | Print | Product List | Glossary Off
Versions: 1 2 3 4 5 6 7 8 9 10 11 12 13

000
FTUS43 KBIS 280300 AAA
TAFJMS
TAF AMD
KJMS 280308Z 2803/2824 34007KT P6SM SCT035 BKN050
     FM280800 33004KT P6SM SCT020 SCT045
     FM281500 35008KT P6SM SCT035 SCT050=

USA.gov is the U.S. government's official web portal to all federal, state and local government web resources and services.